Time;durP1;ratioP1;P1;durP2;ratioP2;P2;SDS_P1;SDS_P2;PMS_P1;PMS_P2;Temp;Humidity;BMP_temperature;BMP_pressure;BME280_temperature;BME280_humidity;BME280_pressure;Samples;Min_cycle;Max_cycle;Signal;HPM_P1;HPM_P2
2021/11/13 00:02:30;;;;;;;23.10;12.20;;;;;;;3.52;93.02;100539.96;102280;1317;74991;-79
2021/11/13 00:05:40;;;;;;;20.10;11.20;;;;;;;3.51;93.15;100541.77;102458;1318;72601;-76
2021/11/13 00:09:01;;;;;;;24.90;12.80;;;;;;;3.51;92.87;100537.09;103272;1313;73623;-79
2021/11/13 00:12:27;;;;;;;25.50;12.00;;;;;;;3.53;93.39;100525.23;102387;1318;61776;-76
2021/11/13 00:15:31;;;;;;;19.10;9.60;;;;;;;3.52;93.18;100504.17;102722;1317;61243;-77
2021/11/13 00:18:59;;;;;;;19.40;9.50;;;;;;;3.50;93.60;100503.95;102618;1318;75109;-78
2021/11/13 00:22:27;;;;;;;19.00;10.50;;;;;;;3.58;93.75;100510.97;102404;1318;73815;-76
2021/11/13 00:25:45;;;;;;;23.00;11.20;;;;;;;3.70;93.42;100519.55;102413;1318;72809;-78
2021/11/13 00:29:11;;;;;;;23.70;10.90;;;;;;;3.82;92.92;100523.69;102577;1318;63605;-78
2021/11/13 00:32:38;;;;;;;24.20;11.80;;;;;;;3.96;92.11;100521.04;102073;1318;61288;-76
2021/11/13 00:35:49;;;;;;;21.80;11.20;;;;;;;4.07;91.45;100515.58;102894;1318;74982;-81
2021/11/13 00:38:30;;;;;;;17.30;9.00;;;;;;;4.16;91.33;100510.02;102465;1318;73840;-77
2021/11/13 00:41:37;;;;;;;24.30;13.00;;;;;;;4.21;90.74;100510.25;102013;1318;73982;-76
2021/11/13 00:44:48;;;;;;;20.50;10.50;;;;;;;4.26;90.35;100515.05;102438;1315;61458;-81
2021/11/13 00:48:14;;;;;;;;;;;;;;;;;;;;;
2021/11/13 00:51:13;;;;;;;18.50;9.20;;;;;;;4.31;90.35;100516.58;102995;1318;75504;-81
2021/11/13 00:54:22;;;;;;;22.00;11.80;;;;;;;4.32;90.12;100515.91;103039;1318;70418;-81
2021/11/13 00:57:40;;;;;;;21.60;10.60;;;;;;;4.34;89.77;100512.06;102176;1318;72098;-80
2021/11/13 01:01:11;;;;;;;19.90;9.40;;;;;;;4.36;89.62;100508.42;102496;1318;61714;-77
2021/11/13 01:04:39;;;;;;;17.00;9.10;;;;;;;4.36;89.18;100508.95;102132;1316;61767;-80
2021/11/13 01:08:07;;;;;;;18.20;7.20;;;;;;;4.36;89.51;100500.19;102561;1313;75994;-81
2021/11/13 01:11:15;;;;;;;21.50;11.20;;;;;;;4.36;89.35;100501.54;102314;1318;71458;-79
2021/11/13 01:14:41;;;;;;;15.60;8.80;;;;;;;4.38;89.12;100497.85;102642;1318;75025;-81
2021/11/13 01:18:08;;;;;;;18.10;9.80;;;;;;;4.37;89.25;100488.82;102636;1316;61314;-78
2021/11/13 01:21:34;;;;;;;15.10;9.40;;;;;;;4.37;89.18;100486.04;102827;1318;61788;-78
2021/11/13 01:24:55;;;;;;;;;;;;;;;;;;;;;
2021/11/13 01:28:24;;;;;;;15.30;9.20;;;;;;;4.34;88.85;100495.45;102925;1318;72585;-78
2021/11/13 01:31:52;;;;;;;15.50;9.00;;;;;;;4.33;88.91;100492.60;102481;1318;73283;-78
2021/11/13 01:35:21;;;;;;;15.00;7.70;;;;;;;4.30;88.64;100477.10;102155;1318;61389;-78
2021/11/13 01:38:32;;;;;;;14.90;7.90;;;;;;;4.27;88.70;100484.02;102260;1317;61335;-77
2021/11/13 01:41:51;;;;;;;16.10;7.50;;;;;;;4.23;88.71;100504.46;102002;1318;74956;-82
2021/11/13 01:45:17;;;;;;;19.40;9.80;;;;;;;4.22;88.67;100511.46;102221;1318;71486;-77
2021/11/13 01:48:29;;;;;;;20.10;9.80;;;;;;;4.19;88.48;100510.98;102859;1318;72944;-79
2021/11/13 01:51:34;;;;;;;;;;;;;;;;;;;;;
2021/11/13 01:55:08;;;;;;;13.90;8.10;;;;;;;4.16;88.73;100505.86;102343;1318;61961;-79
2021/11/13 01:58:35;;;;;;;16.90;10.00;;;;;;;4.12;88.84;100503.77;102306;1318;74929;-79
2021/11/13 02:02:12;;;;;;;;;;;;;;;;;;;;;
2021/11/13 02:05:09;;;;;;;;;;;;;;;;;;;;;
2021/11/13 02:08:27;;;;;;;;;;;;;;;;;;;;;
2021/11/13 02:11:54;;;;;;;;;;;;;;;;;;;;;
2021/11/13 02:15:30;;;;;;;;;;;;;;;;;;;;;
2021/11/13 02:18:58;;;;;;;16.90;8.10;;;;;;;4.04;89.24;100496.06;102566;1318;72467;-80
2021/11/13 02:22:25;;;;;;;16.70;9.30;;;;;;;4.05;89.23;100499.83;102330;1318;71654;-79
2021/11/13 02:25:36;;;;;;;19.50;9.70;;;;;;;4.04;89.15;100492.36;102296;1318;60481;-78
2021/11/13 02:28:36;;;;;;;18.90;8.50;;;;;;;4.03;89.10;100490.52;102212;1318;61288;-78
2021/11/13 02:31:48;;;;;;;20.20;10.10;;;;;;;4.03;89.58;100489.60;102233;1318;75935;-79
2021/11/13 02:34:56;;;;;;;15.30;8.20;;;;;;;4.04;89.59;100484.34;102300;1318;72753;-77
2021/11/13 02:38:32;;;;;;;;;;;;;;;;;;;;;
2021/11/13 02:42:03;;;;;;;18.00;10.30;;;;;;;4.06;89.74;100456.02;102205;1318;62665;-78
2021/11/13 02:45:24;;;;;;;;;;;;;;;;;;;;;
2021/11/13 02:48:24;;;;;;;;;;;;;;;;;;;;;
2021/11/13 02:50:59;;;;;;;16.80;8.40;;;;;;;4.07;89.12;100445.04;102348;1318;71937;-77
2021/11/13 02:54:02;;;;;;;;;;;;;;;;;;;;;
2021/11/13 02:57:08;;;;;;;;;;;;;;;;;;;;;
2021/11/13 03:00:10;;;;;;;19.30;10.10;;;;;;;4.12;89.14;100463.63;103106;1318;63467;-78
2021/11/13 03:03:45;;;;;;;16.30;9.10;;;;;;;4.16;89.14;100457.16;102717;1318;76309;-81
2021/11/13 03:06:56;;;;;;;16.70;9.60;;;;;;;4.23;88.80;100463.73;102544;1318;71500;-77
2021/11/13 03:09:42;;;;;;;14.90;8.30;;;;;;;4.28;88.42;100463.56;102642;1318;74119;-82
2021/11/13 03:13:06;;;;;;;14.00;7.40;;;;;;;4.33;88.68;100459.80;102545;1316;63098;-77
2021/11/13 03:16:35;;;;;;;14.60;7.90;;;;;;;4.39;88.33;100480.65;102141;1318;61404;-78
2021/11/13 03:20:02;;;;;;;14.30;7.50;;;;;;;4.43;88.19;100469.06;103037;1318;75945;-76
2021/11/13 03:23:11;;;;;;;14.20;8.50;;;;;;;4.45;87.93;100458.20;102487;1317;72447;-77
2021/11/13 03:26:50;;;;;;;15.20;7.40;;;;;;;4.48;87.61;100455.98;102589;1318;74031;-82
2021/11/13 03:30:03;;;;;;;14.50;7.80;;;;;;;4.53;87.43;100453.61;102213;1318;61551;-78
2021/11/13 03:32:50;;;;;;;15.40;8.80;;;;;;;4.58;87.17;100469.09;102499;1313;61316;-80
2021/11/13 03:35:57;;;;;;;14.20;8.40;;;;;;;4.62;87.00;100459.80;102541;1318;75165;-81
2021/11/13 03:39:17;;;;;;;15.10;8.30;;;;;;;4.66;86.94;100449.91;102403;1318;71550;-81
2021/11/13 03:42:04;;;;;;;13.10;8.00;;;;;;;4.68;86.64;100445.02;102855;1318;74128;-77
2021/11/13 03:45:32;;;;;;;14.40;8.10;;;;;;;4.69;86.65;100448.40;102258;1318;61826;-77
2021/11/13 03:49:02;;;;;;;8.20;5.20;;;;;;;4.71;86.47;100439.84;102385;1318;61803;-81
2021/11/13 03:51:40;;;;;;;;;;;;;;;;;;;;;
2021/11/13 03:54:20;;;;;;;13.90;7.70;;;;;;;4.75;86.87;100438.49;102502;1318;71607;-77
2021/11/13 04:00:31;;;;;;;;;;;;;;;;;;;;;
2021/11/13 04:03:39;;;;;;;13.20;6.50;;;;;;;4.74;86.64;100446.77;103190;1318;61453;-78
2021/11/13 04:06:18;;;;;;;12.30;6.20;;;;;;;4.75;86.15;100436.20;102315;1318;74927;-77
2021/11/13 04:09:36;;;;;;;13.10;7.00;;;;;;;4.75;85.86;100445.83;102496;1318;71465;-80
2021/11/13 04:12:47;;;;;;;12.40;7.10;;;;;;;4.75;85.80;100439.14;102380;1318;74251;-78
2021/11/13 04:15:55;;;;;;;14.20;7.00;;;;;;;4.73;85.86;100446.48;102503;1315;62246;-79
2021/11/13 04:19:03;;;;;;;15.30;8.50;;;;;;;4.71;85.95;100454.60;102865;1318;61943;-80
2021/11/13 04:22:29;;;;;;;;;;;;;;;;;;;;;
2021/11/13 04:25:47;;;;;;;13.30;5.90;;;;;;;4.64;86.13;100446.49;102548;1318;72462;-79
2021/11/13 04:29:16;;;;;;;10.80;4.50;;;;;;;4.55;86.33;100436.48;102189;1318;74815;-80
2021/11/13 04:32:14;;;;;;;;;;;;;;;;;;;;;
2021/11/13 04:37:50;;;;;;;6.70;4.20;;;;;;;4.28;87.27;100444.52;102472;1318;75111;-77
2021/11/13 04:41:09;;;;;;;13.20;7.00;;;;;;;4.22;87.69;100445.90;102289;1319;72407;-77
2021/11/13 04:44:39;;;;;;;17.50;7.80;;;;;;;4.18;87.96;100452.79;102551;1318;73005;-82
2021/11/13 04:48:07;;;;;;;13.10;7.30;;;;;;;4.15;88.19;100453.20;102711;1318;62197;-79
2021/11/13 04:51:35;;;;;;;14.10;8.00;;;;;;;4.10;88.96;100453.15;102319;1318;61273;-79
2021/11/13 04:55:13;;;;;;;14.90;7.50;;;;;;;4.05;89.01;100453.23;102533;1318;76185;-80
2021/11/13 04:58:41;;;;;;;13.70;7.70;;;;;;;4.02;89.04;100465.77;102667;1318;70256;-81
2021/11/13 05:02:22;;;;;;;11.80;7.10;;;;;;;4.01;89.33;100469.88;102356;1318;74989;-82
2021/11/13 05:05:50;;;;;;;10.00;5.50;;;;;;;3.99;89.20;100469.40;102869;1318;61345;-81
2021/11/13 05:09:17;;;;;;;12.90;6.30;;;;;;;4.00;89.47;100469.59;102962;1316;61247;-79
2021/11/13 05:12:45;;;;;;;10.50;5.50;;;;;;;4.04;89.66;100473.83;102723;1318;75018;-79
2021/11/13 05:16:16;;;;;;;12.20;7.30;;;;;;;4.11;89.45;100477.96;102076;1318;71627;-78
2021/11/13 05:19:44;;;;;;;14.30;8.50;;;;;;;4.16;89.34;100477.30;102435;1318;73974;-81
2021/11/13 05:23:12;;;;;;;11.00;6.10;;;;;;;4.20;89.27;100468.70;103245;1318;61385;-80
2021/11/13 05:26:23;;;;;;;15.00;6.60;;;;;;;4.27;89.50;100470.13;102944;1316;61290;-79
2021/11/13 05:29:52;;;;;;;15.70;7.60;;;;;;;4.39;88.98;100470.64;102995;1318;74331;-81
2021/11/13 05:33:19;;;;;;;15.40;6.40;;;;;;;4.50;88.61;100469.83;102330;1318;71590;-79
2021/11/13 05:36:48;;;;;;;14.00;7.70;;;;;;;4.60;88.15;100471.17;102977;1318;72923;-79
2021/11/13 05:40:13;;;;;;;8.60;5.80;;;;;;;4.68;87.99;100459.75;103019;1318;60750;-77
2021/11/13 05:43:15;;;;;;;8.90;4.90;;;;;;;4.73;87.92;100464.95;103023;1320;61974;-78
2021/11/13 05:46:29;;;;;;;9.10;5.40;;;;;;;4.74;87.81;100465.39;103201;1318;76027;-79
2021/11/13 05:50:03;;;;;;;11.70;5.80;;;;;;;4.75;87.46;100464.23;102531;1318;71360;-81
2021/11/13 05:53:30;;;;;;;15.30;7.20;;;;;;;4.78;87.27;100461.25;102324;1318;73004;-81
2021/11/13 05:56:49;;;;;;;11.60;6.60;;;;;;;4.80;87.24;100477.90;102978;1318;61227;-81
2021/11/13 05:59:57;;;;;;;;;;;;;;;;;;;;;
2021/11/13 06:03:25;;;;;;;13.50;6.00;;;;;;;4.79;87.09;100486.73;102351;1318;75081;-77
2021/11/13 06:06:54;;;;;;;12.70;5.40;;;;;;;4.75;87.15;100478.19;102718;1319;70345;-81
2021/11/13 06:10:22;;;;;;;12.80;6.40;;;;;;;4.72;87.25;100479.71;103083;1318;74166;-80
2021/11/13 06:13:52;;;;;;;13.10;6.10;;;;;;;4.71;87.44;100478.58;102820;1318;62957;-77
2021/11/13 06:17:19;;;;;;;11.30;5.30;;;;;;;4.69;87.59;100475.98;102275;1318;62844;-77
2021/11/13 06:20:52;;;;;;;8.30;4.00;;;;;;;4.65;87.82;100471.98;102845;1318;75072;-80
2021/11/13 06:24:25;;;;;;;13.00;6.10;;;;;;;4.57;88.00;100473.02;98957;1317;72059;-81
2021/11/13 06:28:04;;;;;;;12.40;7.50;;;;;;;4.53;88.25;100481.10;102720;1319;61532;-78
2021/11/13 06:31:32;;;;;;;15.50;7.70;;;;;;;4.52;88.25;100485.63;102228;1319;61414;-81
2021/11/13 06:34:59;;;;;;;11.00;6.60;;;;;;;4.52;88.21;100487.52;102640;1318;76053;-79
2021/11/13 06:38:27;;;;;;;;;;;;;;;;;;;;;
2021/11/13 06:41:30;;;;;;;;;;;;;;;;;;;;;
2021/11/13 06:45:09;;;;;;;12.50;6.80;;;;;;;4.54;89.44;100497.17;102906;1319;62533;-79
2021/11/13 06:48:20;;;;;;;;;;;;;;;;;;;;;
2021/11/13 06:51:03;;;;;;;;;;;;;;;;;;;;;
2021/11/13 06:54:17;;;;;;;9.00;5.60;;;;;;;4.61;90.27;100513.87;102487;1318;71429;-79
2021/11/13 06:57:51;;;;;;;11.00;5.60;;;;;;;4.63;90.49;100513.45;102694;1318;72882;-80
2021/11/13 07:01:19;;;;;;;13.90;7.50;;;;;;;4.66;90.82;100515.50;102529;1318;61492;-79
2021/11/13 07:04:47;;;;;;;12.30;7.10;;;;;;;4.66;90.83;100509.55;102365;1318;61701;-76
2021/11/13 07:08:14;;;;;;;13.80;7.30;;;;;;;4.68;91.66;100514.96;102433;1318;75089;-80
2021/11/13 07:11:42;;;;;;;14.50;6.90;;;;;;;4.69;91.91;100520.08;102615;1318;72726;-79
2021/11/13 07:15:11;;;;;;;13.80;6.20;;;;;;;4.72;92.19;100526.80;102319;1319;74259;-77
2021/11/13 07:18:39;;;;;;;14.80;8.20;;;;;;;4.76;92.33;100532.73;102328;1318;62990;-79
2021/11/13 07:22:07;;;;;;;13.40;6.40;;;;;;;4.79;92.79;100539.86;102394;1318;61011;-77
2021/11/13 07:25:34;;;;;;;16.20;7.70;;;;;;;4.80;92.76;100539.06;102308;1319;76268;-75
2021/11/13 07:29:13;;;;;;;10.50;6.60;;;;;;;4.81;93.54;100534.98;102139;1319;71380;-78
2021/11/13 07:32:21;;;;;;;10.50;5.60;;;;;;;4.80;93.12;100535.52;102192;1318;72881;-77
2021/11/13 07:35:40;;;;;;;7.90;4.20;;;;;;;4.79;93.61;100542.14;102331;1318;61898;-77
2021/11/13 07:39:08;;;;;;;9.10;6.20;;;;;;;4.77;93.82;100542.47;102442;1318;61184;-77
2021/11/13 07:42:35;;;;;;;13.10;7.50;;;;;;;4.76;93.98;100553.79;102355;1318;77021;-76
2021/11/13 07:45:44;;;;;;;14.00;6.90;;;;;;;4.79;94.06;100556.89;102098;1318;72465;-77
2021/11/13 07:49:12;;;;;;;16.30;7.90;;;;;;;4.82;93.97;100554.65;102322;1318;73346;-78
2021/11/13 07:52:49;;;;;;;;;;;;;;;;;;;;;
2021/11/13 07:55:57;;;;;;;9.10;5.60;;;;;;;4.92;93.82;100561.84;102025;1319;61898;-77
2021/11/13 07:59:15;;;;;;;;;;;;;;;;;;;;;
2021/11/13 08:02:43;;;;;;;10.90;5.20;;;;;;;4.96;93.89;100559.86;102314;1319;72426;-75
2021/11/13 08:05:35;;;;;;;12.90;6.30;;;;;;;4.97;93.63;100564.27;102137;1319;73459;-76
2021/11/13 08:08:40;;;;;;;;;;;;;;;;;;;;;
2021/11/13 08:12:09;;;;;;;13.60;6.40;;;;;;;5.01;93.55;100569.52;102318;1316;61249;-77
2021/11/13 08:15:25;;;;;;;;;;;;;;;;;;;;;
2021/11/13 08:18:53;;;;;;;11.00;7.00;;;;;;;5.03;93.57;100566.25;101960;1318;71460;-76
2021/11/13 08:22:21;;;;;;;15.90;8.70;;;;;;;5.05;93.68;100564.27;102011;1319;73002;-76
2021/11/13 08:24:57;;;;;;;;;;;;;;;;;;;;;
2021/11/13 08:31:47;;;;;;;13.10;6.70;;;;;;;5.10;93.99;100565.54;102166;1319;74989;-78
2021/11/13 08:35:15;;;;;;;14.70;7.10;;;;;;;5.12;93.62;100577.48;102171;1319;72793;-77
2021/11/13 08:38:27;;;;;;;12.90;5.90;;;;;;;5.12;93.53;100573.24;102219;1319;74436;-77
2021/11/13 08:41:46;;;;;;;;;;;;;;;;;;;;;
2021/11/13 08:45:15;;;;;;;10.40;5.70;;;;;;;5.17;93.68;100564.88;101983;1318;62690;-78
2021/11/13 08:48:21;;;;;;;;;;;;;;;5.23;93.84;100567.15;102224;1319;74969;-77
2021/11/13 08:51:49;;;;;;;10.20;4.70;;;;;;;5.27;93.63;100570.98;102225;1318;72551;-75
2021/11/13 08:55:17;;;;;;;11.70;5.80;;;;;;;5.34;93.77;100573.85;102106;1320;75403;-76
2021/11/13 08:58:34;;;;;;;18.10;7.10;;;;;;;5.43;93.91;100577.60;102311;1318;62540;-76
2021/11/13 09:01:51;;;;;;;;;;;;;;;;;;;;;
2021/11/13 09:05:01;;;;;;;11.80;6.30;;;;;;;5.59;93.82;100573.63;102068;1319;74936;-75
2021/11/13 09:08:29;;;;;;;13.00;5.40;;;;;;;5.62;93.55;100574.23;102190;1324;71529;-77
2021/11/13 09:12:01;;;;;;;5.80;3.70;;;;;;;5.64;93.29;100577.84;102028;1318;73172;-76
2021/11/13 09:15:25;;;;;;;11.50;6.20;;;;;;;5.65;93.07;100580.77;102178;1323;64011;-79
2021/11/13 09:18:21;;;;;;;10.40;5.30;;;;;;;5.68;93.20;100583.98;102046;1320;61345;-79
2021/11/13 09:21:48;;;;;;;12.60;6.20;;;;;;;5.71;93.27;100583.89;102270;1320;76076;-76
2021/11/13 09:25:16;;;;;;;10.40;5.70;;;;;;;5.76;93.18;100587.08;102200;1317;71493;-75
2021/11/13 09:28:10;;;;;;;11.40;6.30;;;;;;;5.79;93.18;100582.60;102183;1319;74358;-76
2021/11/13 09:31:21;;;;;;;10.40;6.10;;;;;;;5.81;93.19;100577.89;102314;1319;63400;-76
2021/11/13 09:34:11;;;;;;;7.20;4.50;;;;;;;5.81;92.78;100581.34;102304;1317;61341;-75
2021/11/13 09:37:38;;;;;;;11.80;5.70;;;;;;;5.82;92.70;100585.66;102319;1319;76187;-76
2021/11/13 09:41:06;;;;;;;11.70;6.10;;;;;;;5.83;92.58;100593.23;102083;1322;71338;-77
2021/11/13 09:44:12;;;;;;;;;;;;;;;;;;;;;
2021/11/13 09:47:34;;;;;;;;;;;;;;;;;;;;;
2021/11/13 09:51:09;;;;;;;10.10;5.30;;;;;;;5.92;92.40;100577.59;102260;1324;61713;-76
2021/11/13 09:54:28;;;;;;;8.10;5.10;;;;;;;6.01;92.42;100580.66;102274;1318;75035;-75
2021/11/13 09:57:55;;;;;;;8.10;4.80;;;;;;;6.09;92.32;100587.44;102134;1320;71555;-76
2021/11/13 10:01:24;;;;;;;12.20;6.00;;;;;;;6.17;92.07;100590.02;101990;1321;72647;-78
2021/11/13 10:04:52;;;;;;;10.10;5.40;;;;;;;6.29;92.07;100586.95;102505;1321;62387;-76
2021/11/13 10:08:23;;;;;;;10.30;6.00;;;;;;;6.37;91.01;100589.27;102155;1318;61348;-77
2021/11/13 10:11:49;;;;;;;11.70;6.60;;;;;;;6.45;90.24;100587.64;102157;1323;77126;-75
2021/11/13 10:15:16;;;;;;;11.50;6.90;;;;;;;6.49;89.48;100595.61;102216;1321;71800;-75
2021/11/13 10:18:43;;;;;;;11.90;6.00;;;;;;;6.55;89.39;100593.76;102269;1320;72799;-75
2021/11/13 10:21:50;;;;;;;;;;;;;;;6.58;88.75;100599.90;102291;1319;63324;-77
2021/11/13 10:24:57;;;;;;;;;;;;;;;6.60;88.72;100600.60;102213;1318;61375;-76
2021/11/13 10:27:36;;;;;;;9.40;5.50;;;;;;;6.60;88.69;100599.35;102271;1318;74411;-75
2021/11/13 10:30:23;;;;;;;9.80;6.20;;;;;;;6.58;87.93;100602.40;102239;1319;72645;-75
2021/11/13 10:33:57;;;;;;;14.60;7.10;;;;;;;6.57;88.36;100602.30;102155;1320;74652;-80
2021/11/13 10:37:32;;;;;;;10.60;5.90;;;;;;;6.55;88.27;100600.23;102203;1319;63555;-78
2021/11/13 10:40:43;;;;;;;;;;;;;;;;;;;;;
2021/11/13 10:44:12;;;;;;;11.10;6.50;;;;;;;6.52;88.38;100599.20;102268;1318;77320;-76
2021/11/13 10:46:56;;;;;;;10.50;6.30;;;;;;;6.49;88.03;100598.64;102085;1318;72733;-77
2021/11/13 10:49:49;;;;;;;9.90;6.10;;;;;;;6.48;88.28;100598.73;102279;1318;72995;-78
2021/11/13 10:52:40;;;;;;;10.40;6.70;;;;;;;6.51;88.28;100597.92;102312;1324;63256;-75
2021/11/13 10:55:17;;;;;;;12.10;6.40;;;;;;;6.55;88.48;100596.52;102140;1318;61274;-75
2021/11/13 10:58:48;;;;;;;10.00;5.50;;;;;;;6.57;88.20;100594.42;102155;1321;74982;-75
2021/11/13 11:01:58;;;;;;;17.00;7.40;;;;;;;6.57;88.16;100596.50;102251;1319;72548;-75
2021/11/13 11:04:38;;;;;;;10.20;6.60;;;;;;;6.59;88.34;100598.06;101986;1319;73020;-78
2021/11/13 11:07:20;;;;;;;;;;;;;;;;;;;;;
2021/11/13 11:10:21;;;;;;;;;;;;;;;;;;;;;
2021/11/13 11:12:52;;;;;;;13.70;7.40;;;;;;;6.56;87.93;100608.25;102396;1317;75039;-78
2021/11/13 11:15:26;;;;;;;10.90;6.70;;;;;;;6.57;88.15;100610.42;102291;1320;72433;-78
2021/11/13 11:17:59;;;;;;;16.60;8.40;;;;;;;6.57;88.18;100607.40;102239;1318;72795;-75
2021/11/13 11:20:50;;;;;;;13.60;8.00;;;;;;;6.54;88.14;100610.11;102489;1320;62375;-75
2021/11/13 11:23:39;;;;;;;15.20;7.70;;;;;;;6.51;88.15;100605.84;102169;1319;62023;-75
2021/11/13 11:26:23;;;;;;;14.70;8.50;;;;;;;6.49;88.43;100606.55;102338;1321;76005;-75
2021/11/13 11:29:04;;;;;;;13.80;7.40;;;;;;;6.48;88.47;100603.86;102459;1318;72378;-78
2021/11/13 11:31:41;;;;;;;12.90;6.90;;;;;;;6.48;88.62;100609.11;102245;1318;74150;-76
2021/11/13 11:34:47;;;;;;;12.70;6.90;;;;;;;6.46;88.41;100610.92;102310;1318;63368;-79
2021/11/13 11:37:18;;;;;;;13.00;7.50;;;;;;;6.44;88.68;100603.94;101381;1326;61250;-76
2021/11/13 11:40:15;;;;;;;14.10;8.00;;;;;;;6.43;88.37;100608.23;102079;1317;74994;-77
2021/11/13 11:43:03;;;;;;;;;;;;;;;;;;;;;
2021/11/13 11:45:41;;;;;;;15.80;8.00;;;;;;;6.45;88.90;100614.88;102118;1320;74182;-75
2021/11/13 11:48:13;;;;;;;14.70;8.60;;;;;;;6.48;88.99;100610.84;102344;1319;62100;-76
2021/11/13 11:50:43;;;;;;;14.90;7.70;;;;;;;6.52;88.91;100609.58;102159;1319;61397;-76
2021/11/13 11:53:12;;;;;;;14.00;7.40;;;;;;;6.55;88.68;100607.55;102249;1318;74644;-76
2021/11/13 11:56:07;;;;;;;13.70;7.30;;;;;;;6.60;88.46;100609.77;102227;1318;71382;-77
2021/11/13 11:59:15;;;;;;;12.10;7.30;;;;;;;6.61;88.13;100610.73;102263;1318;72905;-77
2021/11/13 12:01:49;;;;;;;11.60;5.90;;;;;;;6.60;88.41;100612.23;102337;1318;61361;-76
2021/11/13 12:04:32;;;;;;;12.30;6.20;;;;;;;6.60;88.63;100613.45;102337;1314;61654;-75
2021/11/13 12:07:09;;;;;;;14.10;7.50;;;;;;;6.58;88.51;100617.30;102426;1318;74966;-78
2021/11/13 12:10:26;;;;;;;12.20;7.90;;;;;;;6.55;88.76;100616.71;102367;1320;72482;-78
2021/11/13 12:13:51;;;;;;;12.90;7.30;;;;;;;6.52;89.60;100616.69;102238;1318;73368;-77
2021/11/13 12:17:09;;;;;;;17.30;8.00;;;;;;;6.48;90.02;100614.60;101540;1330;61946;-78
2021/11/13 12:19:40;;;;;;;15.40;9.00;;;;;;;6.44;90.83;100610.21;101441;1329;61504;-77
2021/11/13 12:22:09;;;;;;;12.90;7.10;;;;;;;6.44;91.15;100611.48;101305;1327;76196;-76
2021/11/13 12:24:57;;;;;;;13.80;8.50;;;;;;;6.46;91.61;100609.52;101905;1318;71683;-78
2021/11/13 12:27:27;;;;;;;14.00;7.70;;;;;;;6.48;91.84;100610.33;102370;1318;72730;-77
2021/11/13 12:29:55;;;;;;;14.90;6.40;;;;;;;6.48;91.96;100611.20;102241;1322;61383;-78
2021/11/13 12:32:37;;;;;;;11.00;6.30;;;;;;;6.47;92.62;100611.80;102429;1316;61371;-79
2021/11/13 12:35:09;;;;;;;15.00;7.90;;;;;;;6.45;92.74;100613.59;102476;1318;75158;-75
2021/11/13 12:37:38;;;;;;;16.50;8.60;;;;;;;6.44;93.14;100616.32;102378;1318;72384;-77
2021/11/13 12:40:05;;;;;;;13.50;7.30;;;;;;;6.46;93.48;100611.59;102255;1317;72208;-77
2021/11/13 12:42:35;;;;;;;13.20;7.40;;;;;;;6.50;93.63;100611.20;102489;1318;62069;-77
2021/11/13 12:45:32;;;;;;;15.40;7.70;;;;;;;6.52;93.54;100608.72;102285;1319;62076;-79
2021/11/13 12:48:10;;;;;;;13.60;7.50;;;;;;;6.57;93.88;100610.96;102307;1318;75146;-78
2021/11/13 12:50:46;;;;;;;11.40;6.90;;;;;;;6.59;93.92;100611.80;102206;1322;71523;-77
2021/11/13 12:53:14;;;;;;;13.70;7.30;;;;;;;6.61;93.61;100614.27;102293;1318;72806;-79
2021/11/13 12:55:45;;;;;;;13.60;7.00;;;;;;;6.63;93.60;100617.15;102224;1318;62211;-76
2021/11/13 12:58:19;;;;;;;16.20;8.00;;;;;;;6.65;93.60;100621.73;102406;1318;60285;-75
2021/11/13 13:00:53;;;;;;;12.30;7.50;;;;;;;6.66;93.58;100620.42;102225;1320;75923;-76
2021/11/13 13:03:35;;;;;;;13.00;8.90;;;;;;;6.68;93.54;100620.59;102258;1318;70404;-78
2021/11/13 13:06:36;;;;;;;12.90;8.00;;;;;;;6.67;93.25;100618.54;102162;1318;72651;-76
2021/11/13 13:09:33;;;;;;;12.60;8.20;;;;;;;6.68;93.04;100621.18;102170;1317;61481;-78
2021/11/13 13:12:16;;;;;;;15.40;7.90;;;;;;;6.72;93.44;100618.39;102170;1318;61949;-76
2021/11/13 13:14:43;;;;;;;18.00;7.30;;;;;;;6.77;93.34;100622.24;102185;1318;75142;-77
2021/11/13 13:17:43;;;;;;;12.00;7.00;;;;;;;6.81;93.09;100616.11;102186;1318;71129;-77
2021/11/13 13:20:26;;;;;;;14.40;8.10;;;;;;;6.83;92.57;100615.41;102149;1318;71946;-76
2021/11/13 13:23:28;;;;;;;13.30;7.10;;;;;;;6.84;92.17;100614.56;102170;1319;62088;-76
2021/11/13 13:26:09;;;;;;;14.30;7.60;;;;;;;6.85;91.67;100605.27;102090;1318;61783;-77
2021/11/13 13:28:40;;;;;;;14.00;8.50;;;;;;;6.90;91.50;100607.84;102120;1318;76210;-77
2021/11/13 13:34:07;;;;;;;11.30;6.40;;;;;;;6.97;90.72;100616.50;102139;1321;73161;-74
2021/11/13 13:37:00;;;;;;;13.50;6.90;;;;;;;6.96;90.55;100615.30;102244;1317;61452;-74
2021/11/13 13:40:22;;;;;;;13.00;8.30;;;;;;;6.97;90.55;100617.16;102222;1320;61316;-75
2021/11/13 13:43:25;;;;;;;;;;;;;;;;;;;;;
2021/11/13 13:46:29;;;;;;;;;;;;;;;;;;;;;
2021/11/13 13:49:22;;;;;;;;;;;;;;;;;;;;;
2021/11/13 13:52:26;;;;;;;10.70;6.20;;;;;;;7.01;90.49;100628.73;102187;1319;61415;-77
2021/11/13 13:55:47;;;;;;;11.00;6.40;;;;;;;7.01;90.16;100631.03;102129;1318;61861;-77
2021/11/13 13:58:12;;;;;;;;;;;;;;;7.01;90.34;100630.41;102272;1318;74952;-76
2021/11/13 14:01:19;;;;;;;11.60;6.90;;;;;;;7.01;90.66;100630.24;102106;1317;72008;-77
2021/11/13 14:04:38;;;;;;;10.30;6.80;;;;;;;7.02;90.30;100634.80;102221;1318;72817;-76
2021/11/13 14:07:34;;;;;;;12.70;7.20;;;;;;;7.02;90.23;100635.77;102211;1318;62277;-75
2021/11/13 14:10:31;;;;;;;10.30;6.00;;;;;;;7.01;90.28;100635.09;102060;1318;60552;-76
2021/11/13 14:13:22;;;;;;;11.70;7.10;;;;;;;7.00;90.29;100643.03;102168;1318;74946;-76
2021/11/13 14:15:59;;;;;;;11.00;6.40;;;;;;;6.99;90.40;100646.36;102119;1318;69954;-76
2021/11/13 14:19:13;;;;;;;11.10;6.00;;;;;;;6.99;90.71;100648.48;102147;1322;73184;-77
2021/11/13 14:22:28;;;;;;;11.70;7.50;;;;;;;6.98;90.35;100650.84;98126;1319;5585746;-78
2021/11/13 14:25:58;;;;;;;11.00;6.20;;;;;;;6.97;90.63;100648.29;102024;1320;61311;-77
2021/11/13 14:28:38;;;;;;;13.70;6.30;;;;;;;6.96;90.94;100647.69;101946;1322;75240;-76
2021/11/13 14:31:38;;;;;;;10.70;6.40;;;;;;;6.94;91.30;100655.05;102173;1318;72486;-76
2021/11/13 14:34:24;;;;;;;;;;;;;;;;;;;;;
2021/11/13 14:37:33;;;;;;;11.60;6.90;;;;;;;6.90;91.83;100659.59;102133;1318;63643;-77
2021/11/13 14:40:48;;;;;;;12.70;6.50;;;;;;;6.88;92.22;100662.61;102171;1318;61579;-79
2021/11/13 14:43:30;;;;;;;12.60;6.80;;;;;;;6.87;92.16;100662.53;102334;1318;75010;-77
2021/11/13 14:46:33;;;;;;;10.80;6.10;;;;;;;6.85;92.57;100665.95;102251;1322;71518;-77
2021/11/13 14:49:04;;;;;;;12.10;6.80;;;;;;;6.84;92.22;100671.17;102038;1318;74051;-77
2021/11/13 14:51:31;;;;;;;11.90;6.20;;;;;;;6.84;92.54;100667.68;102334;1318;62246;-78
2021/11/13 14:54:12;;;;;;;11.90;5.80;;;;;;;6.85;92.49;100669.52;102237;1318;61945;-78
2021/11/13 14:56:43;;;;;;;10.10;5.10;;;;;;;6.83;92.69;100675.44;102173;1321;74076;-78
2021/11/13 14:59:26;;;;;;;9.00;5.00;;;;;;;6.81;92.82;100677.55;102250;1321;71875;-78
2021/11/13 15:02:18;;;;;;;8.60;5.50;;;;;;;6.79;92.93;100682.73;102390;1318;74200;-77
2021/11/13 15:04:50;;;;;;;11.50;5.60;;;;;;;6.78;93.12;100686.36;102314;1319;61362;-76
2021/11/13 15:07:20;;;;;;;11.70;6.00;;;;;;;6.79;93.15;100689.42;102411;1318;61205;-77
2021/11/13 15:10:21;;;;;;;8.60;4.90;;;;;;;6.79;93.54;100687.67;102274;1318;74615;-77
2021/11/13 15:13:10;;;;;;;10.50;6.70;;;;;;;6.80;93.41;100688.95;102337;1325;72884;-76
2021/11/13 15:15:40;;;;;;;10.00;6.10;;;;;;;6.81;93.47;100691.00;101924;1319;74024;-77
2021/11/13 15:18:07;;;;;;;12.80;7.00;;;;;;;6.80;93.13;100689.89;102240;1318;62314;-76
2021/11/13 15:20:41;;;;;;;11.90;7.80;;;;;;;6.80;93.33;100693.39;102268;1319;61530;-76
2021/11/13 15:23:50;;;;;;;12.80;6.90;;;;;;;6.79;93.08;100692.92;102338;1318;76172;-77
2021/11/13 15:26:34;;;;;;;9.40;6.40;;;;;;;6.79;92.92;100693.50;102281;1318;71437;-79
2021/11/13 15:29:23;;;;;;;10.70;6.00;;;;;;;6.78;92.71;100696.90;102526;1318;74123;-77
2021/11/13 15:32:00;;;;;;;11.00;6.90;;;;;;;6.77;92.24;100698.55;102399;1318;61932;-79
2021/11/13 15:34:58;;;;;;;10.70;6.20;;;;;;;6.78;92.17;100698.27;102462;1318;61658;-76
2021/11/13 15:37:34;;;;;;;12.20;6.80;;;;;;;6.79;91.90;100698.36;102156;1318;75018;-76
2021/11/13 15:40:28;;;;;;;12.30;6.70;;;;;;;6.79;91.95;100698.02;102129;1318;72687;-77